Antwerp, Belgium
Current Conditions -  °F | °C
As of 7:20 PM on Thursday 29 Jan 2015 (Local Time) from EBAW Reporting Station
Few Clouds Few Clouds  
Wind Chill: 32°   Ceiling: Unl
Heat Index: 39°   Visibility: 6mi
Dew Point: 34°   Wind: 12mph
Humidity: 81%   Direction: 220°SW
Pressure: 28.79"   Gusts: NA
Location:  51.26°N, 4.36°E
Report Text: EBAW 291820Z 22010KT 190V250 9999 FEW015 04/01 Q0975 TEMPO 23018G30KT 6000 SHRA
Loading
Personal Weather Stations






























Interactive Weather Map New forecast layout! Learn more

10-Day Weather Forecast

Advertisements
Track Severe Weather on mobile